createdAt,value
2023-04-16T00:01:22.639Z,71.68
2023-04-16T00:03:51.109Z,72.60
2023-04-16T00:06:19.579Z,71.43
2023-04-16T00:08:47.999Z,72.41
2023-04-16T00:11:16.712Z,71.71
2023-04-16T00:13:45.194Z,71.87
2023-04-16T00:16:15.361Z,71.56
2023-04-16T00:18:43.720Z,71.64
2023-04-16T00:21:12.202Z,71.19
2023-04-16T00:23:40.662Z,71.22
2023-04-16T00:26:10.193Z,71.40
2023-04-16T00:28:41.635Z,71.41
2023-04-16T00:31:10.180Z,71.45
2023-04-16T00:33:40.014Z,71.31
2023-04-16T00:36:08.874Z,71.80
2023-04-16T00:38:38.371Z,71.47
2023-04-16T00:41:06.805Z,72.25
2023-04-16T00:43:35.149Z,72.04
2023-04-16T00:46:06.789Z,71.53
2023-04-16T00:48:36.461Z,71.84
2023-04-16T00:51:08.330Z,71.58
2023-04-16T00:53:37.078Z,71.92
2023-04-16T00:56:08.218Z,71.51
2023-04-16T00:58:37.171Z,71.08
2023-04-16T01:01:06.085Z,71.77
2023-04-16T01:03:41.073Z,72.40
2023-04-16T01:06:12.318Z,71.41
2023-04-16T01:08:41.022Z,71.67
2023-04-16T01:11:11.101Z,71.92
2023-04-16T01:13:39.727Z,71.91
2023-04-16T01:16:08.749Z,71.44
2023-04-16T01:18:37.450Z,70.89
2023-04-16T01:21:07.385Z,70.60
2023-04-16T01:23:36.033Z,71.69
2023-04-16T01:26:04.568Z,71.32
2023-04-16T01:28:33.074Z,71.62
2023-04-16T01:31:01.485Z,71.86
2023-04-16T01:33:46.427Z,71.45
2023-04-16T01:36:16.373Z,71.43
2023-04-16T01:38:44.851Z,71.32
2023-04-16T01:41:13.182Z,71.84
2023-04-16T01:43:43.143Z,71.54
2023-04-16T01:46:19.477Z,71.09
2023-04-16T01:48:48.337Z,72.85
2023-04-16T01:51:18.102Z,72.37
2023-04-16T01:53:46.813Z,72.28
2023-04-16T01:56:15.375Z,72.08
2023-04-16T01:58:43.846Z,71.67
2023-04-16T02:01:12.297Z,72.32
2023-04-16T02:03:42.556Z,72.37
2023-04-16T02:06:11.180Z,72.08
2023-04-16T02:08:40.963Z,71.75
2023-04-16T02:11:09.328Z,71.38
2023-04-16T02:13:38.155Z,72.14
2023-04-16T02:16:07.490Z,71.94
2023-04-16T02:18:50.078Z,72.11
2023-04-16T02:21:20.572Z,71.65
2023-04-16T02:23:51.946Z,72.34
2023-04-16T02:26:26.241Z,71.80
2023-04-16T02:28:56.470Z,71.81
2023-04-16T02:31:30.703Z,72.22
2023-04-16T02:33:59.725Z,72.54
2023-04-16T02:36:28.573Z,71.54
2023-04-16T02:38:59.283Z,71.44
2023-04-16T02:41:27.766Z,72.40
2023-04-16T02:43:56.407Z,71.31
2023-04-16T02:46:24.976Z,71.26
2023-04-16T02:48:53.427Z,71.19
2023-04-16T02:51:21.896Z,71.18
2023-04-16T02:53:50.599Z,71.46
2023-04-16T02:56:20.439Z,71.27
2023-04-16T02:58:48.934Z,70.87
2023-04-16T03:01:18.164Z,71.63
2023-04-16T03:03:46.770Z,71.24
2023-04-16T03:06:15.198Z,71.50
2023-04-16T03:08:43.572Z,71.44
2023-04-16T03:11:11.952Z,70.62
2023-04-16T03:13:41.722Z,71.08
2023-04-16T03:16:10.149Z,71.75
2023-04-16T03:18:38.793Z,71.18
2023-04-16T03:21:07.406Z,71.90
2023-04-16T03:23:36.405Z,71.06
2023-04-16T03:26:06.511Z,71.18
2023-04-16T03:28:35.442Z,71.83
2023-04-16T03:31:05.687Z,71.82
2023-04-16T03:33:34.110Z,71.24
2023-04-16T03:36:03.411Z,71.05
2023-04-16T03:38:32.732Z,71.78
2023-04-16T03:41:01.475Z,71.49
2023-04-16T03:43:31.534Z,72.02
2023-04-16T03:46:00.117Z,71.41
2023-04-16T03:48:30.167Z,71.54
2023-04-16T03:50:59.776Z,71.86
2023-04-16T03:53:28.666Z,71.75
2023-04-16T03:55:57.156Z,72.42
2023-04-16T03:58:25.789Z,72.90
2023-04-16T04:00:56.077Z,72.34
2023-04-16T04:03:26.260Z,72.77
2023-04-16T04:05:57.484Z,72.61
2023-04-16T04:08:29.957Z,71.89
2023-04-16T04:10:58.393Z,72.20
2023-04-16T04:13:27.425Z,72.79
2023-04-16T04:15:56.297Z,72.67
2023-04-16T04:18:25.689Z,72.83
2023-04-16T04:20:56.167Z,72.87
2023-04-16T04:23:29.072Z,72.26
2023-04-16T04:25:57.578Z,72.60
2023-04-16T04:28:26.498Z,72.60
2023-04-16T04:30:54.920Z,71.21
2023-04-16T04:33:23.379Z,72.16
2023-04-16T04:35:52.763Z,71.15
2023-04-16T04:38:25.386Z,71.29
2023-04-16T04:40:54.417Z,71.90
2023-04-16T04:43:24.881Z,71.70
2023-04-16T04:45:53.359Z,71.38
2023-04-16T04:48:26.591Z,70.67
2023-04-16T04:50:56.155Z,70.83
2023-04-16T04:53:26.868Z,70.61
2023-04-16T04:55:58.814Z,70.95
2023-04-16T04:58:37.701Z,71.32
2023-04-16T05:01:06.820Z,70.79
2023-04-16T05:03:35.346Z,71.07
2023-04-16T05:06:03.867Z,70.76
2023-04-16T05:08:33.638Z,69.94
2023-04-16T05:11:02.063Z,70.79
2023-04-16T05:13:30.515Z,70.14
2023-04-16T05:15:58.925Z,70.37
2023-04-16T05:18:27.816Z,70.75
2023-04-16T05:20:56.281Z,70.01
2023-04-16T05:23:24.800Z,69.37
2023-04-16T05:25:54.541Z,69.70
2023-04-16T05:28:23.104Z,70.15
2023-04-16T05:30:52.049Z,69.25
2023-04-16T05:33:20.992Z,70.16
2023-04-16T05:35:49.618Z,70.06
2023-04-16T05:38:18.040Z,70.45
2023-04-16T05:40:46.418Z,70.19
2023-04-16T05:43:16.196Z,70.56
2023-04-16T05:45:44.602Z,69.40
2023-04-16T05:48:13.883Z,70.32
2023-04-16T05:50:42.300Z,70.70
2023-04-16T05:53:11.165Z,70.18
2023-04-16T05:55:39.676Z,69.47
2023-04-16T05:58:08.197Z,70.14
2023-04-16T06:00:38.111Z,70.58
2023-04-16T06:03:06.763Z,71.12
2023-04-16T06:05:35.541Z,71.39
2023-04-16T06:08:04.017Z,71.90
2023-04-16T06:10:32.579Z,71.96
2023-04-16T06:13:01.129Z,72.67
2023-04-16T06:15:29.849Z,73.83
2023-04-16T06:18:00.900Z,73.23
2023-04-16T06:20:29.727Z,73.22
2023-04-16T06:22:58.392Z,72.42
2023-04-16T06:25:26.931Z,72.78
2023-04-16T06:27:55.361Z,73.15
2023-04-16T06:30:23.793Z,72.00
2023-04-16T06:32:52.397Z,73.00
2023-04-16T06:35:22.310Z,73.03
2023-04-16T06:37:50.686Z,73.78
2023-04-16T06:40:19.216Z,73.61
2023-04-16T06:42:47.750Z,74.32
2023-04-16T06:45:16.218Z,73.71
2023-04-16T06:47:44.756Z,73.96
2023-04-16T06:50:13.252Z,74.35
2023-04-16T06:52:43.161Z,74.50
2023-04-16T06:55:12.512Z,74.90
2023-04-16T06:57:40.963Z,75.30
2023-04-16T07:00:11.044Z,75.66
2023-04-16T07:02:39.683Z,75.14
2023-04-16T07:05:09.105Z,75.14
2023-04-16T07:07:37.545Z,75.10
2023-04-16T07:10:09.240Z,76.05
2023-04-16T07:12:37.818Z,75.53
2023-04-16T07:15:08.679Z,74.69
2023-04-16T07:17:37.241Z,75.67
2023-04-16T07:20:07.297Z,75.18
2023-04-16T07:22:35.869Z,75.76
2023-04-16T07:25:06.295Z,75.60
2023-04-16T07:27:34.686Z,75.31
2023-04-16T07:30:03.054Z,75.32
2023-04-16T07:32:31.487Z,74.63
2023-04-16T07:35:00.482Z,74.87
2023-04-16T07:37:29.238Z,75.97
2023-04-16T07:39:58.276Z,75.68
2023-04-16T07:42:28.756Z,75.26
2023-04-16T07:44:57.207Z,74.56
2023-04-16T07:47:26.595Z,74.54
2023-04-16T07:49:55.067Z,74.86
2023-04-16T07:52:23.448Z,73.38
2023-04-16T07:54:52.804Z,74.39
2023-04-16T07:57:21.243Z,75.05
2023-04-16T07:59:50.992Z,73.42
2023-04-16T08:02:19.630Z,74.01
2023-04-16T08:04:48.258Z,74.12
2023-04-16T08:07:16.744Z,74.15
2023-04-16T08:09:53.366Z,73.13
2023-04-16T08:12:22.390Z,74.01
2023-04-16T08:14:52.142Z,73.20
2023-04-16T08:17:20.615Z,72.68
2023-04-16T08:19:49.090Z,72.17
2023-04-16T08:22:18.069Z,73.66
2023-04-16T08:24:46.477Z,72.95
2023-04-16T08:27:18.572Z,72.57
2023-04-16T08:29:48.437Z,71.89
2023-04-16T08:32:18.608Z,72.30
2023-04-16T08:34:47.289Z,71.84
2023-04-16T08:37:15.744Z,72.72
2023-04-16T08:39:44.145Z,72.13
2023-04-16T08:42:22.778Z,72.77
2023-04-16T08:44:54.724Z,72.13
2023-04-16T08:47:27.167Z,71.43
2023-04-16T08:50:00.129Z,71.18
2023-04-16T08:52:32.302Z,71.58
2023-04-16T08:55:07.869Z,72.12
2023-04-16T08:57:46.247Z,70.83
2023-04-16T09:00:16.101Z,71.27
2023-04-16T09:02:46.249Z,71.56
2023-04-16T09:05:18.212Z,71.46
2023-04-16T09:07:48.031Z,71.98
2023-04-16T09:10:17.218Z,71.52
2023-04-16T09:12:46.936Z,70.86
2023-04-16T09:15:15.638Z,71.02
2023-04-16T09:17:45.447Z,70.86
2023-04-16T09:20:14.519Z,70.68
2023-04-16T09:22:44.557Z,70.00
2023-04-16T09:25:13.805Z,69.87
2023-04-16T09:27:42.371Z,69.77
2023-04-16T09:30:25.647Z,69.84
2023-04-16T09:33:16.738Z,69.49
2023-04-16T09:35:50.514Z,70.08
2023-04-16T09:38:19.252Z,70.02
2023-04-16T09:40:48.476Z,69.28
2023-04-16T09:43:19.652Z,69.40
2023-04-16T09:45:52.399Z,69.67
2023-04-16T09:48:32.320Z,69.65
2023-04-16T09:51:01.492Z,69.62
2023-04-16T09:53:31.913Z,70.07
2023-04-16T09:56:01.316Z,69.87
2023-04-16T09:58:30.810Z,69.25
2023-04-16T10:01:03.381Z,69.86
2023-04-16T10:03:34.611Z,69.48
2023-04-16T10:06:09.245Z,69.24
2023-04-16T10:08:37.714Z,69.82
2023-04-16T10:11:06.579Z,69.70
2023-04-16T10:13:34.901Z,69.88
2023-04-16T10:16:04.633Z,69.44
2023-04-16T10:18:34.833Z,69.66
2023-04-16T10:21:03.952Z,69.45
2023-04-16T10:23:33.374Z,69.63
2023-04-16T10:26:03.397Z,69.16
2023-04-16T10:28:35.170Z,69.66
2023-04-16T10:31:05.661Z,69.85
2023-04-16T10:33:39.081Z,69.62
2023-04-16T10:36:12.799Z,70.26
2023-04-16T10:38:42.550Z,70.16
2023-04-16T10:41:10.910Z,70.73
2023-04-16T10:43:46.200Z,70.64
2023-04-16T10:46:23.334Z,70.15
2023-04-16T10:48:55.727Z,70.57
2023-04-16T10:51:33.604Z,71.89
2023-04-16T10:54:06.348Z,71.10
2023-04-16T10:56:36.721Z,72.15
2023-04-16T10:59:07.373Z,72.04
2023-04-16T11:01:37.742Z,72.91
2023-04-16T11:04:35.150Z,72.76
2023-04-16T11:07:16.602Z,73.30
2023-04-16T11:10:05.450Z,73.38
2023-04-16T11:12:37.862Z,73.53
2023-04-16T11:15:09.360Z,73.51
2023-04-16T11:17:40.258Z,73.37
2023-04-16T11:20:20.156Z,73.68
2023-04-16T11:22:50.023Z,73.84
2023-04-16T11:25:22.677Z,74.22
2023-04-16T11:27:51.955Z,74.79
2023-04-16T11:30:30.061Z,74.73
2023-04-16T11:32:58.522Z,75.98
2023-04-16T11:35:28.394Z,75.81
2023-04-16T11:37:58.556Z,76.50
2023-04-16T11:40:30.918Z,76.96
2023-04-16T11:43:03.988Z,77.04
2023-04-16T11:45:32.520Z,76.71
2023-04-16T11:48:00.893Z,77.09
2023-04-16T11:50:30.858Z,77.69
2023-04-16T11:53:06.374Z,77.28
2023-04-16T11:55:45.621Z,76.83
2023-04-16T11:58:15.966Z,77.09
2023-04-16T12:00:45.410Z,76.79
2023-04-16T12:03:14.028Z,76.83
2023-04-16T12:05:43.990Z,76.40
2023-04-16T12:08:13.511Z,76.74
2023-04-16T12:10:55.530Z,76.56
2023-04-16T12:13:24.307Z,76.47
2023-04-16T12:15:54.748Z,76.42
2023-04-16T12:18:26.981Z,76.90
2023-04-16T12:20:56.917Z,76.38
2023-04-16T12:23:27.193Z,76.12
2023-04-16T12:25:56.433Z,76.01
2023-04-16T12:28:33.950Z,75.37
2023-04-16T12:31:03.207Z,75.59
2023-04-16T12:33:32.096Z,75.20
2023-04-16T12:36:04.654Z,75.79
2023-04-16T12:38:33.127Z,75.17
2023-04-16T12:41:02.386Z,75.53
2023-04-16T12:43:30.884Z,75.49
2023-04-16T12:45:59.269Z,74.28
2023-04-16T12:48:27.679Z,73.59
2023-04-16T12:50:56.190Z,73.14
2023-04-16T12:53:26.202Z,72.86
2023-04-16T12:55:54.568Z,72.75
2023-04-16T12:58:23.077Z,72.76
2023-04-16T13:00:51.424Z,73.01
2023-04-16T13:03:21.023Z,72.30
2023-04-16T13:05:49.728Z,72.07
2023-04-16T13:08:18.085Z,71.87
2023-04-16T13:10:47.785Z,71.38
2023-04-16T13:13:16.553Z,71.68
2023-04-16T13:15:44.924Z,71.79
2023-04-16T13:18:13.382Z,71.28
2023-04-16T13:20:41.864Z,69.44
2023-04-16T13:23:10.490Z,69.57
2023-04-16T13:25:39.014Z,68.81
2023-04-16T13:28:08.826Z,68.77
2023-04-16T13:30:37.312Z,68.58
2023-04-16T13:33:05.902Z,68.48
2023-04-16T13:35:34.315Z,68.79
2023-04-16T13:38:02.927Z,68.60
2023-04-16T13:40:31.413Z,67.94
2023-04-16T13:42:59.879Z,67.94
2023-04-16T13:45:29.672Z,67.08
2023-04-16T13:47:58.026Z,66.71
2023-04-16T13:50:26.364Z,66.94
2023-04-16T13:52:54.675Z,66.01
2023-04-16T13:55:23.095Z,65.79
2023-04-16T13:57:53.294Z,66.07
2023-04-16T14:00:21.887Z,66.13
2023-04-16T14:02:53.655Z,65.85
2023-04-16T14:05:24.618Z,66.29
2023-04-16T14:07:54.902Z,66.42
2023-04-16T14:10:23.209Z,65.75
2023-04-16T14:12:51.875Z,66.92
2023-04-16T14:15:20.952Z,66.96
2023-04-16T14:17:49.340Z,67.08
2023-04-16T14:20:19.170Z,66.89
2023-04-16T14:22:47.486Z,67.69
2023-04-16T14:25:16.196Z,67.60
2023-04-16T14:27:44.512Z,67.36
2023-04-16T14:30:13.359Z,67.04
2023-04-16T14:32:41.751Z,66.85
2023-04-16T14:35:10.883Z,66.94
2023-04-16T14:37:41.377Z,67.99
2023-04-16T14:40:12.753Z,67.88
2023-04-16T14:42:41.111Z,68.31
2023-04-16T14:45:11.168Z,67.47
2023-04-16T14:47:45.779Z,67.43
2023-04-16T14:50:15.610Z,67.09
2023-04-16T14:52:45.521Z,66.11
2023-04-16T14:55:13.894Z,66.12
2023-04-16T14:57:42.364Z,65.95
2023-04-16T15:00:13.454Z,66.15
2023-04-16T15:02:42.071Z,66.48
2023-04-16T15:05:11.566Z,64.85
2023-04-16T15:07:39.917Z,64.41
2023-04-16T15:10:12.615Z,64.78
2023-04-16T15:12:41.102Z,63.70
2023-04-16T15:15:11.088Z,64.23
2023-04-16T15:17:39.520Z,64.71
2023-04-16T15:20:10.777Z,65.45
2023-04-16T15:22:39.307Z,65.66
2023-04-16T15:25:10.387Z,66.04
2023-04-16T15:27:38.708Z,65.33
2023-04-16T15:30:08.890Z,65.68
2023-04-16T15:32:37.328Z,67.38
2023-04-16T15:35:08.608Z,65.06
2023-04-16T15:37:38.857Z,66.00
2023-04-16T15:40:10.750Z,65.08
2023-04-16T15:42:39.822Z,65.09
2023-04-16T15:45:08.850Z,64.27
2023-04-16T15:47:40.206Z,64.44
2023-04-16T15:50:10.085Z,64.18
2023-04-16T15:52:39.473Z,64.71
2023-04-16T15:55:09.982Z,64.07
2023-04-16T15:57:38.286Z,64.75
2023-04-16T16:00:13.435Z,64.36
2023-04-16T16:02:42.747Z,62.94
2023-04-16T16:05:12.005Z,63.00
2023-04-16T16:07:40.777Z,62.83
2023-04-16T16:10:13.237Z,63.50
2023-04-16T16:12:41.880Z,62.94
2023-04-16T16:15:12.036Z,62.95
2023-04-16T16:17:40.829Z,64.12
2023-04-16T16:20:10.850Z,63.33
2023-04-16T16:22:40.613Z,63.73
2023-04-16T16:25:11.185Z,63.58
2023-04-16T16:27:40.700Z,64.04
2023-04-16T16:30:10.882Z,64.53
2023-04-16T16:32:40.992Z,64.13
2023-04-16T16:35:10.971Z,63.23
2023-04-16T16:37:39.755Z,62.82
2023-04-16T16:40:11.151Z,63.30
2023-04-16T16:42:39.661Z,63.47
2023-04-16T16:45:09.922Z,63.49
2023-04-16T16:47:38.267Z,64.26
2023-04-16T16:50:08.703Z,65.18
2023-04-16T16:52:37.048Z,66.46
2023-04-16T16:55:08.686Z,67.04
2023-04-16T16:57:38.875Z,67.99
2023-04-16T17:00:14.233Z,68.06
2023-04-16T17:02:43.179Z,69.18
2023-04-16T17:05:12.575Z,69.08
2023-04-16T17:07:41.299Z,68.47
2023-04-16T17:10:13.137Z,68.53
2023-04-16T17:12:43.057Z,69.05
2023-04-16T17:15:12.647Z,69.63
2023-04-16T17:17:41.068Z,69.96
2023-04-16T17:20:12.258Z,69.75
2023-04-16T17:22:40.939Z,69.83
2023-04-16T17:25:10.237Z,69.99
2023-04-16T17:27:41.571Z,70.46
2023-04-16T17:30:12.261Z,71.06
2023-04-16T17:32:40.897Z,71.14
2023-04-16T17:35:11.024Z,71.60
2023-04-16T17:37:39.399Z,71.15
2023-04-16T17:40:10.166Z,72.02
2023-04-16T17:42:38.615Z,71.97
2023-04-16T17:45:08.455Z,71.30
2023-04-16T17:47:38.359Z,71.77
2023-04-16T17:50:08.543Z,71.98
2023-04-16T17:52:37.511Z,71.62
2023-04-16T17:55:06.693Z,72.03
2023-04-16T17:57:35.142Z,71.91
2023-04-16T18:00:05.923Z,72.13
2023-04-16T18:02:42.007Z,71.98
2023-04-16T18:05:11.192Z,72.33
2023-04-16T18:07:39.615Z,72.15
2023-04-16T18:10:10.815Z,72.40
2023-04-16T18:12:39.140Z,71.98
2023-04-16T18:15:09.096Z,72.27
2023-04-16T18:17:37.474Z,71.87
2023-04-16T18:20:11.714Z,71.91
2023-04-16T18:22:40.100Z,72.19
2023-04-16T18:25:09.285Z,72.07
2023-04-16T18:27:37.700Z,72.12
2023-04-16T18:30:07.756Z,72.90
2023-04-16T18:32:37.616Z,72.43
2023-04-16T18:35:09.048Z,73.35
2023-04-16T18:37:37.411Z,73.92
2023-04-16T18:40:10.683Z,73.47
2023-04-16T18:42:39.100Z,74.61
2023-04-16T18:45:13.328Z,74.25
2023-04-16T18:47:42.450Z,74.37
2023-04-16T18:50:12.393Z,74.40
2023-04-16T18:52:40.746Z,73.99
2023-04-16T18:55:10.124Z,74.52
2023-04-16T18:57:38.546Z,73.87
2023-04-16T19:00:12.418Z,74.75
2023-04-16T19:02:41.215Z,74.99
2023-04-16T19:05:11.445Z,75.26
2023-04-16T19:07:40.061Z,76.23
2023-04-16T19:10:10.238Z,76.43
2023-04-16T19:12:38.631Z,76.62
2023-04-16T19:15:08.230Z,76.51
2023-04-16T19:17:36.656Z,76.79
2023-04-16T19:20:08.498Z,77.26
2023-04-16T19:22:38.358Z,77.25
2023-04-16T19:25:07.880Z,78.43
2023-04-16T19:27:36.351Z,77.99
2023-04-16T19:30:06.284Z,77.83
2023-04-16T19:32:34.929Z,78.14
2023-04-16T19:35:03.818Z,77.93
2023-04-16T19:37:32.251Z,78.10
2023-04-16T19:40:02.086Z,78.47
2023-04-16T19:42:30.639Z,78.31
2023-04-16T19:44:59.057Z,77.52
2023-04-16T19:47:27.496Z,77.87
2023-04-16T19:49:55.935Z,77.90
2023-04-16T19:52:24.416Z,78.03
2023-04-16T19:54:52.734Z,78.02
2023-04-16T19:57:22.465Z,78.31
2023-04-16T19:59:50.958Z,77.75
2023-04-16T20:02:19.457Z,77.98
2023-04-16T20:04:48.478Z,78.36
2023-04-16T20:07:16.872Z,77.31
2023-04-16T20:09:45.278Z,77.76
2023-04-16T20:12:18.577Z,78.02
2023-04-16T20:14:48.391Z,78.17
2023-04-16T20:17:18.647Z,78.40
2023-04-16T20:19:49.590Z,77.48
2023-04-16T20:22:18.874Z,78.28
2023-04-16T20:24:48.283Z,78.59
2023-04-16T20:27:16.976Z,78.49
2023-04-16T20:29:45.376Z,78.47
2023-04-16T20:32:15.103Z,77.70
2023-04-16T20:34:43.461Z,78.35
2023-04-16T20:37:11.867Z,78.71
2023-04-16T20:39:42.121Z,78.11
2023-04-16T20:42:11.137Z,78.61
2023-04-16T20:44:41.296Z,77.87
2023-04-16T20:47:10.263Z,78.35
2023-04-16T20:49:40.329Z,77.85
2023-04-16T20:52:08.770Z,78.77
2023-04-16T20:54:37.181Z,78.27
2023-04-16T20:57:05.670Z,77.94
2023-04-16T20:59:34.064Z,78.57
2023-04-16T21:02:02.615Z,77.94
2023-04-16T21:04:31.231Z,78.28
2023-04-16T21:07:03.283Z,78.35
2023-04-16T21:09:31.687Z,78.38
2023-04-16T21:12:00.185Z,78.49
2023-04-16T21:14:28.747Z,77.97
2023-04-16T21:16:57.144Z,77.54
2023-04-16T21:19:25.555Z,77.69
2023-04-16T21:21:53.992Z,78.60
2023-04-16T21:24:23.746Z,78.77
2023-04-16T21:26:52.177Z,78.25
2023-04-16T21:29:20.625Z,78.13
2023-04-16T21:31:49.224Z,77.85
2023-04-16T21:34:17.631Z,78.75
2023-04-16T21:36:46.168Z,78.43
2023-04-16T21:39:16.116Z,77.94
2023-04-16T21:41:45.919Z,78.89
2023-04-16T21:44:15.040Z,78.43
2023-04-16T21:46:43.539Z,78.18
2023-04-16T21:49:12.175Z,78.48
2023-04-16T21:51:43.034Z,78.75
2023-04-16T21:54:11.444Z,78.09
2023-04-16T21:56:39.933Z,78.28
2023-04-16T21:59:10.109Z,78.91
2023-04-16T22:01:38.796Z,78.18
2023-04-16T22:04:07.522Z,77.91
2023-04-16T22:06:35.964Z,78.45
2023-04-16T22:09:06.697Z,77.79
2023-04-16T22:11:35.134Z,78.83
2023-04-16T22:14:08.167Z,78.30
2023-04-16T22:16:38.074Z,78.77
2023-04-16T22:19:07.382Z,78.92
2023-04-16T22:21:35.912Z,78.98
2023-04-16T22:24:04.368Z,78.82
2023-04-16T22:26:32.767Z,79.34
2023-04-16T22:29:01.994Z,79.21
2023-04-16T22:31:30.473Z,79.43
2023-04-16T22:34:02.775Z,79.42
2023-04-16T22:36:32.134Z,79.28
2023-04-16T22:39:00.508Z,79.61
2023-04-16T22:41:28.943Z,78.85
2023-04-16T22:43:57.338Z,79.34
2023-04-16T22:46:26.594Z,79.77
2023-04-16T22:48:55.072Z,79.65
2023-04-16T22:51:25.378Z,79.71
2023-04-16T22:53:53.881Z,79.23
2023-04-16T22:56:22.389Z,78.80
2023-04-16T22:58:50.875Z,78.68
2023-04-16T23:01:19.255Z,79.65
2023-04-16T23:03:47.791Z,79.33
2023-04-16T23:06:16.317Z,79.78
2023-04-16T23:08:46.507Z,79.02
2023-04-16T23:11:14.943Z,78.81
2023-04-16T23:13:43.737Z,79.20
2023-04-16T23:16:12.402Z,79.92
2023-04-16T23:18:40.811Z,79.55
2023-04-16T23:21:09.134Z,78.89
2023-04-16T23:23:37.447Z,79.31
2023-04-16T23:26:07.292Z,79.37
2023-04-16T23:28:35.697Z,79.47
2023-04-16T23:31:06.025Z,79.28
2023-04-16T23:33:35.679Z,79.04
2023-04-16T23:36:04.091Z,79.49
2023-04-16T23:38:32.464Z,79.31
2023-04-16T23:41:00.876Z,79.39
2023-04-16T23:43:30.639Z,79.88
2023-04-16T23:45:59.323Z,79.81
2023-04-16T23:48:27.768Z,79.93
2023-04-16T23:50:56.139Z,79.52
2023-04-16T23:53:24.519Z,80.23
2023-04-16T23:55:53.154Z,79.60
2023-04-16T23:58:21.530Z,79.21
